100LL.CA
Aviation Fuel Pricing for Canadians
Please upgrade your browser - Tested with IE9, FireFox, Chrome, Safari

Fuel Airports Other Help
Prices Economy Info List METAR/TAF Kneeboard Help

Reference Airport: PORT HARDY, BC
N 50 40 50  W 127 22 00
Provinces to show:

CYZT PORT HARDY, BC
WEATHER
METARCYZT 132000Z 02009KT 20SM FEW035 SCT220 10/03 A3004 RMK SC1CI2 SLP175
TAFTAF CYZT 131840Z 1319/1407 34010KT P6SM FEW020 SCT150 BECMG 1401/1403 30008KT RMK NXT FCST BY 140100Z
OTHER SITES

FlightAware

FltPlan

Google Maps

SkyVector
FUEL
FBO 100LL
member
100LL
public
JETA MOGAS
Wilderness Seaplanes (2023-06-11)3.010
  Note: Ramp fees apply in addition to fuel charges.
Canada Flight Supplement - CYZT
(opens in new tab/window)


Please Send Updates!

Desktop Version ]  [ Mobile Version ]  [ Disclaimer ]